This is the latest recevied weather packets stored in our database for station/object IZ5MMH-14. If no packets are shown the sender has not sent any weather packets the latest 10 day(s).
| Time | Temp. | Humidity | Pressure | Rain* | Wind** | Luminosity | Snow |
|---|---|---|---|---|---|---|---|
| 1777579799 | 17.78° C | 35% | 1020.8 hPa | - | - | - | - |
| 1777579199 | 18.33° C | 32% | 1020.6 hPa | - | - | - | - |
| 1777576799 | 20° C | 24% | 1020.2 hPa | - | - | - | - |
| 1777575599 | 21.11° C | 22% | 1020 hPa | - | - | - | - |
| 1777573799 | 21.67° C | 26% | 1019.5 hPa | - | - | - | - |
| 1777570199 | 22.78° C | 28% | 1018.6 hPa | - | - | - | - |
| 1777568399 | 23.33° C | 30% | 1018.4 hPa | - | - | - | - |
| 1777567799 | 23.33° C | 32% | 1018.4 hPa | - | - | - | - |
| 1777566598 | 23.33° C | 27% | 1018.3 hPa | - | - | - | - |
| 1777564798 | 23.89° C | 28% | 1018.1 hPa | - | - | - | - |
| 1777562999 | 25° C | 32% | 1018 hPa | - | - | - | - |
| 1777562398 | 25° C | 29% | 1017.9 hPa | - | - | - | - |
| 1777561799 | 25° C | 29% | 1017.9 hPa | - | - | - | - |
| 1777559399 | 24.44° C | 52% | 1018.1 hPa | - | - | - | - |
| 1777558798 | 25° C | 44% | 1018.2 hPa | - | - | - | - |
| 1777558198 | 25.56° C | 39% | 1018.2 hPa | - | - | - | - |
| 1777557599 | 25.56° C | 34% | 1018.3 hPa | - | - | - | - |
| 1777555799 | 25.56° C | 45% | 1018.5 hPa | - | - | - | - |
| 1777555198 | 25° C | 43% | 1018.6 hPa | - | - | - | - |
| 1777553998 | 23.33° C | 49% | 1018.9 hPa | - | - | - | - |
| 1777553399 | 23.33° C | 44% | 1018.9 hPa | - | - | - | - |
| 1777552198 | 22.78° C | 58% | 1019 hPa | - | - | - | - |
| 1777551598 | 23.33° C | 53% | 1019.1 hPa | - | - | - | - |
| 1777550998 | 26.11° C | 35% | 1019.1 hPa | - | - | - | - |
| 1777550398 | 25.56° C | 33% | 1019.1 hPa | - | - | - | - |
* Rain since midnight (hover to see other rain measurements)
** Current wind speed in m/s (hover to see current wind gust speed)